sensor_id;sensor_type;location;lat;lon;timestamp;temperature;humidity
17489;DHT22;8861;52.644;4.734;2022-08-11T00:02:27;19.70;99.90
17489;DHT22;8861;52.644;4.734;2022-08-11T00:05:00;19.70;99.90
17489;DHT22;8861;52.644;4.734;2022-08-11T00:07:28;19.70;99.90
17489;DHT22;8861;52.644;4.734;2022-08-11T00:09:55;19.60;99.90
17489;DHT22;8861;52.644;4.734;2022-08-11T00:12:24;19.60;99.90
17489;DHT22;8861;52.644;4.734;2022-08-11T00:14:57;19.60;99.90
17489;DHT22;8861;52.644;4.734;2022-08-11T00:17:29;19.50;99.90
17489;DHT22;8861;52.644;4.734;2022-08-11T00:20:03;19.50;99.90
17489;DHT22;8861;52.644;4.734;2022-08-11T00:22:31;19.50;99.90
17489;DHT22;8861;52.644;4.734;2022-08-11T00:25:00;19.50;99.90
17489;DHT22;8861;52.644;4.734;2022-08-11T00:27:36;19.50;99.90
17489;DHT22;8861;52.644;4.734;2022-08-11T00:30:06;19.40;99.90
17489;DHT22;8861;52.644;4.734;2022-08-11T00:32:34;19.40;99.90
17489;DHT22;8861;52.644;4.734;2022-08-11T00:35:04;19.40;99.90
17489;DHT22;8861;52.644;4.734;2022-08-11T00:37:33;19.40;99.90
17489;DHT22;8861;52.644;4.734;2022-08-11T00:40:02;19.40;99.90
17489;DHT22;8861;52.644;4.734;2022-08-11T00:42:42;19.30;99.90
17489;DHT22;8861;52.644;4.734;2022-08-11T00:45:21;19.30;99.90
17489;DHT22;8861;52.644;4.734;2022-08-11T00:47:56;19.30;99.90
17489;DHT22;8861;52.644;4.734;2022-08-11T00:50:46;19.30;99.90
17489;DHT22;8861;52.644;4.734;2022-08-11T00:53:32;19.30;99.90
17489;DHT22;8861;52.644;4.734;2022-08-11T01:02:09;19.20;99.90
17489;DHT22;8861;52.644;4.734;2022-08-11T01:05:03;19.20;99.90
17489;DHT22;8861;52.644;4.734;2022-08-11T01:10:47;19.10;99.90
17489;DHT22;8861;52.644;4.734;2022-08-11T01:13:35;19.10;99.90
17489;DHT22;8861;52.644;4.734;2022-08-11T01:16:29;19.00;99.90
17489;DHT22;8861;52.644;4.734;2022-08-11T01:22:22;19.00;99.90
17489;DHT22;8861;52.644;4.734;2022-08-11T01:31:36;19.00;99.90
17489;DHT22;8861;52.644;4.734;2022-08-11T01:37:23;19.00;99.90
17489;DHT22;8861;52.644;4.734;2022-08-11T01:40:20;18.90;99.90
17489;DHT22;8861;52.644;4.734;2022-08-11T01:43:08;18.90;99.90
17489;DHT22;8861;52.644;4.734;2022-08-11T01:45:57;18.90;99.90
17489;DHT22;8861;52.644;4.734;2022-08-11T01:48:34;18.90;99.90
17489;DHT22;8861;52.644;4.734;2022-08-11T01:51:16;18.80;99.90
17489;DHT22;8861;52.644;4.734;2022-08-11T01:53:53;18.80;99.90
17489;DHT22;8861;52.644;4.734;2022-08-11T01:56:32;18.80;99.90
17489;DHT22;8861;52.644;4.734;2022-08-11T01:59:09;18.80;99.90
17489;DHT22;8861;52.644;4.734;2022-08-11T02:01:48;18.70;99.90
17489;DHT22;8861;52.644;4.734;2022-08-11T02:04:28;18.70;99.90
17489;DHT22;8861;52.644;4.734;2022-08-11T02:07:02;18.70;99.90
17489;DHT22;8861;52.644;4.734;2022-08-11T02:10:03;18.70;99.90
17489;DHT22;8861;52.644;4.734;2022-08-11T02:12:52;18.70;99.90
17489;DHT22;8861;52.644;4.734;2022-08-11T02:15:25;18.70;99.90
17489;DHT22;8861;52.644;4.734;2022-08-11T02:18:03;18.70;99.90
17489;DHT22;8861;52.644;4.734;2022-08-11T02:20:36;18.60;99.90
17489;DHT22;8861;52.644;4.734;2022-08-11T02:23:28;18.60;99.90
17489;DHT22;8861;52.644;4.734;2022-08-11T02:26:19;18.60;99.90
17489;DHT22;8861;52.644;4.734;2022-08-11T02:28:58;18.60;99.90
17489;DHT22;8861;52.644;4.734;2022-08-11T02:31:39;18.60;99.90
17489;DHT22;8861;52.644;4.734;2022-08-11T02:34:34;18.50;99.90
17489;DHT22;8861;52.644;4.734;2022-08-11T02:37:12;18.50;99.90
17489;DHT22;8861;52.644;4.734;2022-08-11T02:39:46;18.50;99.90
17489;DHT22;8861;52.644;4.734;2022-08-11T02:42:27;18.50;99.90
17489;DHT22;8861;52.644;4.734;2022-08-11T02:45:15;18.50;99.90
17489;DHT22;8861;52.644;4.734;2022-08-11T02:47:50;18.40;99.90
17489;DHT22;8861;52.644;4.734;2022-08-11T02:50:39;18.40;99.90
17489;DHT22;8861;52.644;4.734;2022-08-11T02:53:11;18.40;99.90
17489;DHT22;8861;52.644;4.734;2022-08-11T02:55:51;18.40;99.90
17489;DHT22;8861;52.644;4.734;2022-08-11T02:58:32;18.40;99.90
17489;DHT22;8861;52.644;4.734;2022-08-11T03:01:07;18.40;99.90
17489;DHT22;8861;52.644;4.734;2022-08-11T03:03:48;18.30;99.90
17489;DHT22;8861;52.644;4.734;2022-08-11T03:06:26;18.30;99.90
17489;DHT22;8861;52.644;4.734;2022-08-11T03:09:02;18.30;99.90
17489;DHT22;8861;52.644;4.734;2022-08-11T03:11:51;18.30;99.90
17489;DHT22;8861;52.644;4.734;2022-08-11T03:14:48;18.30;99.90
17489;DHT22;8861;52.644;4.734;2022-08-11T03:17:40;18.20;99.90
17489;DHT22;8861;52.644;4.734;2022-08-11T03:20:19;18.20;99.90
17489;DHT22;8861;52.644;4.734;2022-08-11T03:22:53;18.20;99.90
17489;DHT22;8861;52.644;4.734;2022-08-11T03:25:28;18.20;99.90
17489;DHT22;8861;52.644;4.734;2022-08-11T03:28:08;18.20;99.90
17489;DHT22;8861;52.644;4.734;2022-08-11T03:30:45;18.20;99.90
17489;DHT22;8861;52.644;4.734;2022-08-11T03:33:23;18.20;99.90
17489;DHT22;8861;52.644;4.734;2022-08-11T03:36:22;18.10;99.90
17489;DHT22;8861;52.644;4.734;2022-08-11T03:39:06;18.10;99.90
17489;DHT22;8861;52.644;4.734;2022-08-11T03:41:37;18.10;99.90
17489;DHT22;8861;52.644;4.734;2022-08-11T03:44:42;18.10;99.90
17489;DHT22;8861;52.644;4.734;2022-08-11T03:47:33;18.10;99.90
17489;DHT22;8861;52.644;4.734;2022-08-11T03:50:11;18.00;99.90
17489;DHT22;8861;52.644;4.734;2022-08-11T03:52:50;18.00;99.90
17489;DHT22;8861;52.644;4.734;2022-08-11T03:55:32;18.00;99.90
17489;DHT22;8861;52.644;4.734;2022-08-11T03:58:30;18.00;99.90
17489;DHT22;8861;52.644;4.734;2022-08-11T04:01:30;18.00;99.90
17489;DHT22;8861;52.644;4.734;2022-08-11T04:07:22;17.90;99.90
17489;DHT22;8861;52.644;4.734;2022-08-11T04:10:30;18.00;99.90
17489;DHT22;8861;52.644;4.734;2022-08-11T04:13:34;17.90;99.90
17489;DHT22;8861;52.644;4.734;2022-08-11T04:16:15;17.90;99.90
17489;DHT22;8861;52.644;4.734;2022-08-11T04:25:25;17.80;99.90
17489;DHT22;8861;52.644;4.734;2022-08-11T04:28:22;17.80;99.90
17489;DHT22;8861;52.644;4.734;2022-08-11T04:31:07;17.80;99.90
17489;DHT22;8861;52.644;4.734;2022-08-11T04:33:58;17.90;99.90
17489;DHT22;8861;52.644;4.734;2022-08-11T04:36:40;17.80;99.90
17489;DHT22;8861;52.644;4.734;2022-08-11T04:39:42;17.80;99.90
17489;DHT22;8861;52.644;4.734;2022-08-11T04:52:05;17.90;99.90
17489;DHT22;8861;52.644;4.734;2022-08-11T04:55:01;17.90;99.90
17489;DHT22;8861;52.644;4.734;2022-08-11T04:58:00;17.90;99.90
17489;DHT22;8861;52.644;4.734;2022-08-11T05:00:53;17.90;99.90
17489;DHT22;8861;52.644;4.734;2022-08-11T05:04:02;17.90;99.90
17489;DHT22;8861;52.644;4.734;2022-08-11T05:09:44;18.00;99.90
17489;DHT22;8861;52.644;4.734;2022-08-11T05:12:30;18.10;99.90
17489;DHT22;8861;52.644;4.734;2022-08-11T05:15:02;18.10;99.90
17489;DHT22;8861;52.644;4.734;2022-08-11T05:17:56;18.20;99.90
17489;DHT22;8861;52.644;4.734;2022-08-11T05:20:46;18.10;99.90
17489;DHT22;8861;52.644;4.734;2022-08-11T05:23:34;18.20;99.90
17489;DHT22;8861;52.644;4.734;2022-08-11T05:26:20;18.30;99.90
17489;DHT22;8861;52.644;4.734;2022-08-11T05:29:26;18.30;99.90
17489;DHT22;8861;52.644;4.734;2022-08-11T05:32:16;18.30;99.90
17489;DHT22;8861;52.644;4.734;2022-08-11T05:35:03;18.40;99.90
17489;DHT22;8861;52.644;4.734;2022-08-11T05:37:37;18.40;99.90
17489;DHT22;8861;52.644;4.734;2022-08-11T05:40:06;18.40;99.90
17489;DHT22;8861;52.644;4.734;2022-08-11T05:42:56;18.50;99.90
17489;DHT22;8861;52.644;4.734;2022-08-11T05:45:42;18.50;99.90
17489;DHT22;8861;52.644;4.734;2022-08-11T05:48:32;18.60;99.90
17489;DHT22;8861;52.644;4.734;2022-08-11T05:51:17;18.60;99.90
17489;DHT22;8861;52.644;4.734;2022-08-11T05:54:06;18.70;99.90
17489;DHT22;8861;52.644;4.734;2022-08-11T05:56:55;18.80;99.90
17489;DHT22;8861;52.644;4.734;2022-08-11T05:59:23;18.90;99.90
17489;DHT22;8861;52.644;4.734;2022-08-11T06:01:52;18.90;99.90
17489;DHT22;8861;52.644;4.734;2022-08-11T06:04:22;19.00;99.90
17489;DHT22;8861;52.644;4.734;2022-08-11T06:06:54;19.10;99.90
17489;DHT22;8861;52.644;4.734;2022-08-11T06:09:31;19.20;99.90
17489;DHT22;8861;52.644;4.734;2022-08-11T06:12:01;19.20;99.90
17489;DHT22;8861;52.644;4.734;2022-08-11T06:14:29;19.30;99.90
17489;DHT22;8861;52.644;4.734;2022-08-11T06:16:58;19.40;99.90
17489;DHT22;8861;52.644;4.734;2022-08-11T06:19:35;19.40;99.90
17489;DHT22;8861;52.644;4.734;2022-08-11T06:22:05;19.50;99.90
17489;DHT22;8861;52.644;4.734;2022-08-11T06:24:34;19.50;99.90
17489;DHT22;8861;52.644;4.734;2022-08-11T06:27:03;19.60;99.90
17489;DHT22;8861;52.644;4.734;2022-08-11T06:29:33;19.60;99.90
17489;DHT22;8861;52.644;4.734;2022-08-11T06:32:06;19.70;99.90
17489;DHT22;8861;52.644;4.734;2022-08-11T06:34:49;19.70;99.90
17489;DHT22;8861;52.644;4.734;2022-08-11T06:37:23;19.80;99.90
17489;DHT22;8861;52.644;4.734;2022-08-11T06:40:02;19.90;99.90
17489;DHT22;8861;52.644;4.734;2022-08-11T06:42:45;19.90;99.90
17489;DHT22;8861;52.644;4.734;2022-08-11T06:45:23;20.00;99.90
17489;DHT22;8861;52.644;4.734;2022-08-11T06:47:52;20.10;99.90
17489;DHT22;8861;52.644;4.734;2022-08-11T06:50:22;20.10;99.90
17489;DHT22;8861;52.644;4.734;2022-08-11T06:53:08;20.20;99.90
17489;DHT22;8861;52.644;4.734;2022-08-11T06:55:40;20.20;99.90
17489;DHT22;8861;52.644;4.734;2022-08-11T06:58:27;20.20;99.90
17489;DHT22;8861;52.644;4.734;2022-08-11T07:01:16;20.30;99.90
17489;DHT22;8861;52.644;4.734;2022-08-11T07:03:47;20.40;99.90
17489;DHT22;8861;52.644;4.734;2022-08-11T07:06:30;20.40;99.90
17489;DHT22;8861;52.644;4.734;2022-08-11T07:09:44;20.50;99.90
17489;DHT22;8861;52.644;4.734;2022-08-11T07:12:39;20.50;99.90
17489;DHT22;8861;52.644;4.734;2022-08-11T07:15:29;20.60;99.90
17489;DHT22;8861;52.644;4.734;2022-08-11T07:18:11;20.60;99.90
17489;DHT22;8861;52.644;4.734;2022-08-11T07:21:13;20.70;99.90
17489;DHT22;8861;52.644;4.734;2022-08-11T07:24:03;20.70;99.90
17489;DHT22;8861;52.644;4.734;2022-08-11T07:26:54;20.80;99.90
17489;DHT22;8861;52.644;4.734;2022-08-11T07:29:46;20.90;99.90
17489;DHT22;8861;52.644;4.734;2022-08-11T07:32:23;20.90;99.90
17489;DHT22;8861;52.644;4.734;2022-08-11T07:34:55;21.00;99.90
17489;DHT22;8861;52.644;4.734;2022-08-11T07:37:24;21.00;99.90
17489;DHT22;8861;52.644;4.734;2022-08-11T07:39:53;21.10;99.90
17489;DHT22;8861;52.644;4.734;2022-08-11T07:42:27;21.20;99.90
17489;DHT22;8861;52.644;4.734;2022-08-11T07:44:55;21.20;99.90
17489;DHT22;8861;52.644;4.734;2022-08-11T07:47:41;21.30;99.90
17489;DHT22;8861;52.644;4.734;2022-08-11T07:50:26;21.40;99.90
17489;DHT22;8861;52.644;4.734;2022-08-11T07:53:12;21.40;99.90
17489;DHT22;8861;52.644;4.734;2022-08-11T07:55:42;21.50;99.90
17489;DHT22;8861;52.644;4.734;2022-08-11T07:58:09;21.50;99.90
17489;DHT22;8861;52.644;4.734;2022-08-11T08:00:56;21.60;99.90
17489;DHT22;8861;52.644;4.734;2022-08-11T08:03:41;21.70;99.90
17489;DHT22;8861;52.644;4.734;2022-08-11T08:06:27;21.80;99.90
17489;DHT22;8861;52.644;4.734;2022-08-11T08:09:12;21.90;99.90
17489;DHT22;8861;52.644;4.734;2022-08-11T08:12:00;22.00;99.90
17489;DHT22;8861;52.644;4.734;2022-08-11T08:14:45;22.10;99.90
17489;DHT22;8861;52.644;4.734;2022-08-11T08:17:30;22.20;99.90
17489;DHT22;8861;52.644;4.734;2022-08-11T08:20:16;22.30;99.90
17489;DHT22;8861;52.644;4.734;2022-08-11T08:22:45;22.40;99.90
17489;DHT22;8861;52.644;4.734;2022-08-11T08:25:13;22.40;99.90
17489;DHT22;8861;52.644;4.734;2022-08-11T08:27:45;22.50;99.90
17489;DHT22;8861;52.644;4.734;2022-08-11T08:30:13;22.60;99.90
17489;DHT22;8861;52.644;4.734;2022-08-11T08:32:58;22.70;99.90
17489;DHT22;8861;52.644;4.734;2022-08-11T08:35:25;22.70;99.90
17489;DHT22;8861;52.644;4.734;2022-08-11T08:37:55;22.80;99.90
17489;DHT22;8861;52.644;4.734;2022-08-11T08:40:22;22.90;99.90
17489;DHT22;8861;52.644;4.734;2022-08-11T08:42:54;22.90;99.90
17489;DHT22;8861;52.644;4.734;2022-08-11T08:45:22;23.00;99.90
17489;DHT22;8861;52.644;4.734;2022-08-11T08:47:54;23.00;99.90
17489;DHT22;8861;52.644;4.734;2022-08-11T08:50:23;23.20;99.90
17489;DHT22;8861;52.644;4.734;2022-08-11T08:53:12;23.20;99.90
17489;DHT22;8861;52.644;4.734;2022-08-11T08:55:41;23.30;99.90
17489;DHT22;8861;52.644;4.734;2022-08-11T08:58:10;23.40;99.90
17489;DHT22;8861;52.644;4.734;2022-08-11T09:00:40;23.40;99.90
17489;DHT22;8861;52.644;4.734;2022-08-11T09:03:08;23.50;99.90
17489;DHT22;8861;52.644;4.734;2022-08-11T09:05:36;23.50;99.90
17489;DHT22;8861;52.644;4.734;2022-08-11T09:08:04;23.60;99.90
17489;DHT22;8861;52.644;4.734;2022-08-11T09:10:32;23.70;99.90
17489;DHT22;8861;52.644;4.734;2022-08-11T09:13:00;23.70;99.90
17489;DHT22;8861;52.644;4.734;2022-08-11T09:15:31;23.80;99.90
17489;DHT22;8861;52.644;4.734;2022-08-11T09:18:00;23.90;99.90
17489;DHT22;8861;52.644;4.734;2022-08-11T09:20:33;24.00;99.90
17489;DHT22;8861;52.644;4.734;2022-08-11T09:23:02;24.20;99.90
17489;DHT22;8861;52.644;4.734;2022-08-11T09:25:49;24.20;99.90
17489;DHT22;8861;52.644;4.734;2022-08-11T09:28:35;24.30;99.90
17489;DHT22;8861;52.644;4.734;2022-08-11T09:31:05;24.40;99.90
17489;DHT22;8861;52.644;4.734;2022-08-11T09:33:33;24.50;99.90
17489;DHT22;8861;52.644;4.734;2022-08-11T09:36:01;24.60;99.90
17489;DHT22;8861;52.644;4.734;2022-08-11T09:38:50;24.60;99.90
17489;DHT22;8861;52.644;4.734;2022-08-11T09:41:35;24.70;99.90
17489;DHT22;8861;52.644;4.734;2022-08-11T09:44:04;24.80;99.90
17489;DHT22;8861;52.644;4.734;2022-08-11T09:46:52;24.80;99.90
17489;DHT22;8861;52.644;4.734;2022-08-11T09:49:22;24.80;99.90
17489;DHT22;8861;52.644;4.734;2022-08-11T09:51:50;24.90;99.90
17489;DHT22;8861;52.644;4.734;2022-08-11T09:54:17;24.90;99.90
17489;DHT22;8861;52.644;4.734;2022-08-11T09:56:44;25.00;99.90
17489;DHT22;8861;52.644;4.734;2022-08-11T09:59:29;25.10;99.90
17489;DHT22;8861;52.644;4.734;2022-08-11T10:02:01;25.10;99.90
17489;DHT22;8861;52.644;4.734;2022-08-11T10:04:32;25.20;99.90
17489;DHT22;8861;52.644;4.734;2022-08-11T10:07:03;25.30;99.90
17489;DHT22;8861;52.644;4.734;2022-08-11T10:09:38;25.40;99.90
17489;DHT22;8861;52.644;4.734;2022-08-11T10:12:09;25.40;99.90
17489;DHT22;8861;52.644;4.734;2022-08-11T10:14:41;25.50;99.90
17489;DHT22;8861;52.644;4.734;2022-08-11T10:17:31;25.70;99.90
17489;DHT22;8861;52.644;4.734;2022-08-11T10:19:59;25.80;99.90
17489;DHT22;8861;52.644;4.734;2022-08-11T10:22:29;25.80;99.90
17489;DHT22;8861;52.644;4.734;2022-08-11T10:25:14;25.90;99.90
17489;DHT22;8861;52.644;4.734;2022-08-11T10:28:02;26.00;99.90
17489;DHT22;8861;52.644;4.734;2022-08-11T10:30:30;26.00;99.90
17489;DHT22;8861;52.644;4.734;2022-08-11T10:33:16;26.10;99.90
17489;DHT22;8861;52.644;4.734;2022-08-11T10:36:02;26.20;99.90
17489;DHT22;8861;52.644;4.734;2022-08-11T10:38:30;26.30;99.90
17489;DHT22;8861;52.644;4.734;2022-08-11T10:40:58;26.30;99.90
17489;DHT22;8861;52.644;4.734;2022-08-11T10:43:42;26.40;99.90
17489;DHT22;8861;52.644;4.734;2022-08-11T10:46:10;26.40;99.90
17489;DHT22;8861;52.644;4.734;2022-08-11T10:48:57;26.50;99.90
17489;DHT22;8861;52.644;4.734;2022-08-11T10:51:25;26.60;99.90
17489;DHT22;8861;52.644;4.734;2022-08-11T10:54:10;26.60;99.90
17489;DHT22;8861;52.644;4.734;2022-08-11T10:56:55;26.70;99.90
17489;DHT22;8861;52.644;4.734;2022-08-11T10:59:40;26.80;99.90
17489;DHT22;8861;52.644;4.734;2022-08-11T11:02:10;26.80;99.90
17489;DHT22;8861;52.644;4.734;2022-08-11T11:04:53;26.80;99.90
17489;DHT22;8861;52.644;4.734;2022-08-11T11:07:28;26.80;99.90
17489;DHT22;8861;52.644;4.734;2022-08-11T11:10:01;26.90;99.90
17489;DHT22;8861;52.644;4.734;2022-08-11T11:12:31;27.00;99.90
17489;DHT22;8861;52.644;4.734;2022-08-11T11:15:17;27.00;99.90
17489;DHT22;8861;52.644;4.734;2022-08-11T11:18:05;27.20;99.90
17489;DHT22;8861;52.644;4.734;2022-08-11T11:20:39;27.20;99.90
17489;DHT22;8861;52.644;4.734;2022-08-11T11:23:10;27.20;99.90
17489;DHT22;8861;52.644;4.734;2022-08-11T11:25:54;27.30;99.90
17489;DHT22;8861;52.644;4.734;2022-08-11T11:31:41;27.40;99.90
17489;DHT22;8861;52.644;4.734;2022-08-11T11:34:22;27.50;99.90
17489;DHT22;8861;52.644;4.734;2022-08-11T11:36:57;27.60;99.90
17489;DHT22;8861;52.644;4.734;2022-08-11T11:39:27;27.70;99.90
17489;DHT22;8861;52.644;4.734;2022-08-11T11:41:58;27.70;99.90
17489;DHT22;8861;52.644;4.734;2022-08-11T11:44:26;27.80;99.90
17489;DHT22;8861;52.644;4.734;2022-08-11T11:46:54;27.80;99.90
17489;DHT22;8861;52.644;4.734;2022-08-11T11:49:23;27.80;99.90
17489;DHT22;8861;52.644;4.734;2022-08-11T11:51:51;27.80;99.90
17489;DHT22;8861;52.644;4.734;2022-08-11T11:54:23;27.90;99.90
17489;DHT22;8861;52.644;4.734;2022-08-11T11:59:24;28.00;99.90
17489;DHT22;8861;52.644;4.734;2022-08-11T12:02:11;28.00;99.90
17489;DHT22;8861;52.644;4.734;2022-08-11T12:04:40;28.10;99.90
17489;DHT22;8861;52.644;4.734;2022-08-11T12:07:09;28.10;99.90
17489;DHT22;8861;52.644;4.734;2022-08-11T12:09:56;28.20;99.90
17489;DHT22;8861;52.644;4.734;2022-08-11T12:12:24;28.30;99.90
17489;DHT22;8861;52.644;4.734;2022-08-11T12:15:09;28.30;99.90
17489;DHT22;8861;52.644;4.734;2022-08-11T12:17:37;28.40;99.90
17489;DHT22;8861;52.644;4.734;2022-08-11T12:20:06;28.40;99.90
17489;DHT22;8861;52.644;4.734;2022-08-11T12:22:34;28.40;99.90
17489;DHT22;8861;52.644;4.734;2022-08-11T12:25:20;28.50;99.90
17489;DHT22;8861;52.644;4.734;2022-08-11T12:28:05;28.60;99.90
17489;DHT22;8861;52.644;4.734;2022-08-11T12:30:32;28.60;99.90
17489;DHT22;8861;52.644;4.734;2022-08-11T12:32:59;28.60;99.90
17489;DHT22;8861;52.644;4.734;2022-08-11T12:35:26;28.60;99.90
17489;DHT22;8861;52.644;4.734;2022-08-11T12:37:54;28.70;99.90
17489;DHT22;8861;52.644;4.734;2022-08-11T12:40:26;28.70;99.90
17489;DHT22;8861;52.644;4.734;2022-08-11T12:43:11;28.70;99.90
17489;DHT22;8861;52.644;4.734;2022-08-11T12:45:57;28.70;99.90
17489;DHT22;8861;52.644;4.734;2022-08-11T12:48:29;28.70;99.90
17489;DHT22;8861;52.644;4.734;2022-08-11T12:51:19;28.70;99.90
17489;DHT22;8861;52.644;4.734;2022-08-11T12:54:09;28.70;99.90
17489;DHT22;8861;52.644;4.734;2022-08-11T12:56:41;29.00;99.90
17489;DHT22;8861;52.644;4.734;2022-08-11T12:59:27;29.40;99.90
17489;DHT22;8861;52.644;4.734;2022-08-11T13:02:15;29.70;99.90
17489;DHT22;8861;52.644;4.734;2022-08-11T13:05:01;29.90;99.90
17489;DHT22;8861;52.644;4.734;2022-08-11T13:07:29;29.90;99.90
17489;DHT22;8861;52.644;4.734;2022-08-11T13:09:58;29.80;99.90
17489;DHT22;8861;52.644;4.734;2022-08-11T13:12:29;29.80;99.90
17489;DHT22;8861;52.644;4.734;2022-08-11T13:15:17;29.70;99.90
17489;DHT22;8861;52.644;4.734;2022-08-11T13:17:45;29.70;99.90
17489;DHT22;8861;52.644;4.734;2022-08-11T13:20:17;29.70;99.90
17489;DHT22;8861;52.644;4.734;2022-08-11T13:22:48;29.90;99.90
17489;DHT22;8861;52.644;4.734;2022-08-11T13:25:16;30.00;99.90
17489;DHT22;8861;52.644;4.734;2022-08-11T13:27:46;30.20;99.90
17489;DHT22;8861;52.644;4.734;2022-08-11T13:30:14;30.40;99.90
17489;DHT22;8861;52.644;4.734;2022-08-11T13:33:02;30.50;99.90
17489;DHT22;8861;52.644;4.734;2022-08-11T13:35:29;30.50;99.90
17489;DHT22;8861;52.644;4.734;2022-08-11T13:37:57;30.50;99.90
17489;DHT22;8861;52.644;4.734;2022-08-11T13:40:27;30.30;99.90
17489;DHT22;8861;52.644;4.734;2022-08-11T13:42:56;30.40;99.90
17489;DHT22;8861;52.644;4.734;2022-08-11T13:45:24;30.40;99.90
17489;DHT22;8861;52.644;4.734;2022-08-11T13:47:55;30.40;99.90
17489;DHT22;8861;52.644;4.734;2022-08-11T13:50:23;30.40;99.90
17489;DHT22;8861;52.644;4.734;2022-08-11T13:53:12;30.30;99.90
17489;DHT22;8861;52.644;4.734;2022-08-11T13:55:41;30.30;99.90
17489;DHT22;8861;52.644;4.734;2022-08-11T13:58:10;30.40;99.90
17489;DHT22;8861;52.644;4.734;2022-08-11T14:00:39;31.00;99.90
17489;DHT22;8861;52.644;4.734;2022-08-11T14:03:08;32.40;99.90
17489;DHT22;8861;52.644;4.734;2022-08-11T14:05:39;33.10;99.90
17489;DHT22;8861;52.644;4.734;2022-08-11T14:08:09;33.10;99.70
17489;DHT22;8861;52.644;4.734;2022-08-11T14:10:38;32.80;99.90
17489;DHT22;8861;52.644;4.734;2022-08-11T14:13:08;32.50;99.80
17489;DHT22;8861;52.644;4.734;2022-08-11T14:15:57;32.60;99.90
17489;DHT22;8861;52.644;4.734;2022-08-11T14:18:28;33.50;99.00
17489;DHT22;8861;52.644;4.734;2022-08-11T14:20:57;34.70;97.80
17489;DHT22;8861;52.644;4.734;2022-08-11T14:23:44;35.30;97.10
17489;DHT22;8861;52.644;4.734;2022-08-11T14:26:14;36.20;96.50
17489;DHT22;8861;52.644;4.734;2022-08-11T14:28:54;37.40;94.10
17489;DHT22;8861;52.644;4.734;2022-08-11T14:31:26;38.70;92.20
17489;DHT22;8861;52.644;4.734;2022-08-11T14:33:55;40.00;90.40
17489;DHT22;8861;52.644;4.734;2022-08-11T14:36:29;40.90;87.10
17489;DHT22;8861;52.644;4.734;2022-08-11T14:38:56;41.50;82.30
17489;DHT22;8861;52.644;4.734;2022-08-11T14:41:25;41.40;80.20
17489;DHT22;8861;52.644;4.734;2022-08-11T14:44:10;41.40;77.60
17489;DHT22;8861;52.644;4.734;2022-08-11T14:46:56;41.10;75.00
17489;DHT22;8861;52.644;4.734;2022-08-11T14:49:41;40.70;74.20
17489;DHT22;8861;52.644;4.734;2022-08-11T14:52:10;40.00;75.50
17489;DHT22;8861;52.644;4.734;2022-08-11T14:54:42;39.60;74.70
17489;DHT22;8861;52.644;4.734;2022-08-11T14:57:28;39.20;71.60
17489;DHT22;8861;52.644;4.734;2022-08-11T15:00:00;38.80;71.10
17489;DHT22;8861;52.644;4.734;2022-08-11T15:02:29;38.70;72.00
17489;DHT22;8861;52.644;4.734;2022-08-11T15:05:14;38.50;72.30
17489;DHT22;8861;52.644;4.734;2022-08-11T15:07:41;37.90;71.90
17489;DHT22;8861;52.644;4.734;2022-08-11T15:10:09;37.30;73.70
17489;DHT22;8861;52.644;4.734;2022-08-11T15:12:38;36.70;75.00
17489;DHT22;8861;52.644;4.734;2022-08-11T15:15:08;36.30;76.60
17489;DHT22;8861;52.644;4.734;2022-08-11T15:17:55;35.70;78.00
17489;DHT22;8861;52.644;4.734;2022-08-11T15:20:25;35.20;79.60
17489;DHT22;8861;52.644;4.734;2022-08-11T15:23:09;34.90;80.50
17489;DHT22;8861;52.644;4.734;2022-08-11T15:25:58;34.50;81.40
17489;DHT22;8861;52.644;4.734;2022-08-11T15:28:28;34.10;82.70
17489;DHT22;8861;52.644;4.734;2022-08-11T15:31:14;34.00;84.20
17489;DHT22;8861;52.644;4.734;2022-08-11T15:34:04;33.80;85.80
17489;DHT22;8861;52.644;4.734;2022-08-11T15:36:50;33.50;86.70
17489;DHT22;8861;52.644;4.734;2022-08-11T15:39:44;33.20;87.80
17489;DHT22;8861;52.644;4.734;2022-08-11T15:42:38;33.00;89.50
17489;DHT22;8861;52.644;4.734;2022-08-11T15:45:24;32.90;90.20
17489;DHT22;8861;52.644;4.734;2022-08-11T15:48:11;32.80;90.30
17489;DHT22;8861;52.644;4.734;2022-08-11T15:50:47;32.60;90.60
17489;DHT22;8861;52.644;4.734;2022-08-11T15:53:19;32.50;90.80
17489;DHT22;8861;52.644;4.734;2022-08-11T15:55:48;32.50;90.80
17489;DHT22;8861;52.644;4.734;2022-08-11T15:58:17;32.40;90.60
17489;DHT22;8861;52.644;4.734;2022-08-11T16:01:04;32.40;91.10
17489;DHT22;8861;52.644;4.734;2022-08-11T16:03:51;32.50;91.50
17489;DHT22;8861;52.644;4.734;2022-08-11T16:06:44;32.40;91.00
17489;DHT22;8861;52.644;4.734;2022-08-11T16:09:12;32.30;91.10
17489;DHT22;8861;52.644;4.734;2022-08-11T16:11:41;32.20;91.10
17489;DHT22;8861;52.644;4.734;2022-08-11T16:14:11;32.10;91.30
17489;DHT22;8861;52.644;4.734;2022-08-11T16:16:56;32.00;91.70
17489;DHT22;8861;52.644;4.734;2022-08-11T16:19:26;31.90;92.40
17489;DHT22;8861;52.644;4.734;2022-08-11T16:22:02;31.90;93.20
17489;DHT22;8861;52.644;4.734;2022-08-11T16:24:33;31.80;93.90
17489;DHT22;8861;52.644;4.734;2022-08-11T16:27:02;31.70;94.30
17489;DHT22;8861;52.644;4.734;2022-08-11T16:29:30;31.70;94.90
17489;DHT22;8861;52.644;4.734;2022-08-11T16:31:58;31.60;95.10
17489;DHT22;8861;52.644;4.734;2022-08-11T16:34:49;31.50;95.60
17489;DHT22;8861;52.644;4.734;2022-08-11T16:37:36;31.40;96.10
17489;DHT22;8861;52.644;4.734;2022-08-11T16:40:22;31.40;96.60
17489;DHT22;8861;52.644;4.734;2022-08-11T16:42:51;31.30;96.90
17489;DHT22;8861;52.644;4.734;2022-08-11T16:45:38;31.20;97.30
17489;DHT22;8861;52.644;4.734;2022-08-11T16:48:26;31.10;97.60
17489;DHT22;8861;52.644;4.734;2022-08-11T16:50:54;31.00;98.00
17489;DHT22;8861;52.644;4.734;2022-08-11T16:53:26;31.00;98.40
17489;DHT22;8861;52.644;4.734;2022-08-11T16:55:54;30.90;98.50
17489;DHT22;8861;52.644;4.734;2022-08-11T16:58:22;30.90;98.70
17489;DHT22;8861;52.644;4.734;2022-08-11T17:01:08;30.80;99.00
17489;DHT22;8861;52.644;4.734;2022-08-11T17:03:42;30.80;99.50
17489;DHT22;8861;52.644;4.734;2022-08-11T17:06:28;30.80;99.90
17489;DHT22;8861;52.644;4.734;2022-08-11T17:09:18;30.70;99.90
17489;DHT22;8861;52.644;4.734;2022-08-11T17:12:05;30.70;99.90
17489;DHT22;8861;52.644;4.734;2022-08-11T17:14:54;30.70;99.90
17489;DHT22;8861;52.644;4.734;2022-08-11T17:17:26;30.70;99.90
17489;DHT22;8861;52.644;4.734;2022-08-11T17:19:56;30.70;99.90
17489;DHT22;8861;52.644;4.734;2022-08-11T17:22:25;30.70;99.90
17489;DHT22;8861;52.644;4.734;2022-08-11T17:25:13;30.60;99.90
17489;DHT22;8861;52.644;4.734;2022-08-11T17:27:42;30.60;99.90
17489;DHT22;8861;52.644;4.734;2022-08-11T17:30:11;30.60;99.90
17489;DHT22;8861;52.644;4.734;2022-08-11T17:32:41;30.50;99.90
17489;DHT22;8861;52.644;4.734;2022-08-11T17:35:28;30.50;99.90
17489;DHT22;8861;52.644;4.734;2022-08-11T17:38:03;30.50;99.90
17489;DHT22;8861;52.644;4.734;2022-08-11T17:40:33;30.50;99.90
17489;DHT22;8861;52.644;4.734;2022-08-11T17:43:03;30.40;99.90
17489;DHT22;8861;52.644;4.734;2022-08-11T17:45:49;30.50;99.90